createdAt,value
2022-12-14T00:02:35.693Z,-2.72
2022-12-14T00:05:38.907Z,-2.68
2022-12-14T00:08:42.205Z,-2.70
2022-12-14T00:11:45.560Z,-2.54
2022-12-14T00:14:48.242Z,-2.31
2022-12-14T00:17:51.304Z,-2.28
2022-12-14T00:20:53.973Z,-2.16
2022-12-14T00:23:59.665Z,-2.10
2022-12-14T00:27:02.286Z,-2.05
2022-12-14T00:30:05.921Z,-1.96
2022-12-14T00:33:08.487Z,-1.85
2022-12-14T00:36:13.131Z,-1.77
2022-12-14T00:39:15.880Z,-1.70
2022-12-14T00:42:20.127Z,-1.59
2022-12-14T00:45:24.044Z,-1.50
2022-12-14T00:48:28.050Z,-1.55
2022-12-14T00:51:30.928Z,-1.51
2022-12-14T00:54:38.329Z,-1.45
2022-12-14T00:57:41.497Z,-1.45
2022-12-14T01:00:44.803Z,-1.22
2022-12-14T01:03:48.313Z,-1.26
2022-12-14T01:06:52.996Z,-1.24
2022-12-14T01:09:55.684Z,-1.28
2022-12-14T01:13:00.297Z,-1.37
2022-12-14T01:16:14.791Z,-1.31
2022-12-14T01:19:18.002Z,-1.29
2022-12-14T01:22:20.694Z,-1.24
2022-12-14T01:25:23.979Z,-1.29
2022-12-14T01:28:27.841Z,-1.28
2022-12-14T01:31:34.670Z,-1.48
2022-12-14T01:34:37.322Z,-1.58
2022-12-14T01:37:40.248Z,-1.68
2022-12-14T01:40:42.863Z,-1.62
2022-12-14T01:44:04.376Z,-1.53
2022-12-14T01:47:42.523Z,-1.65
2022-12-14T01:50:47.560Z,-1.55
2022-12-14T01:53:50.587Z,-1.52
2022-12-14T01:56:54.474Z,-1.42
2022-12-14T02:00:03.632Z,-1.49
2022-12-14T02:03:17.534Z,-1.54
2022-12-14T02:06:26.906Z,-1.45
2022-12-14T02:09:34.052Z,-1.44
2022-12-14T02:12:56.063Z,-1.58
2022-12-14T02:15:59.569Z,-1.51
2022-12-14T02:19:02.257Z,-1.61
2022-12-14T02:22:37.801Z,-1.61
2022-12-14T02:25:57.342Z,-1.63
2022-12-14T02:29:19.113Z,-1.60
2022-12-14T02:32:46.038Z,-1.72
2022-12-14T02:36:07.683Z,-1.66
2022-12-14T02:39:41.567Z,-1.69
2022-12-14T02:42:50.998Z,-1.55
2022-12-14T02:46:30.660Z,-1.47
2022-12-14T02:50:01.364Z,-1.38
2022-12-14T02:53:22.515Z,-1.42
2022-12-14T02:56:35.501Z,-1.39
2022-12-14T02:59:38.873Z,-1.38
2022-12-14T03:02:44.077Z,-1.34
2022-12-14T03:06:00.598Z,-1.52
2022-12-14T03:09:18.155Z,-1.47
2022-12-14T03:12:22.656Z,-1.49
2022-12-14T03:15:28.589Z,-1.56
2022-12-14T03:18:36.933Z,-1.61
2022-12-14T03:21:45.711Z,-1.73
2022-12-14T03:24:55.769Z,-1.70
2022-12-14T03:28:20.627Z,-1.61
2022-12-14T03:31:32.685Z,-1.60
2022-12-14T03:34:46.198Z,-1.67
2022-12-14T03:37:58.912Z,-1.58
2022-12-14T03:41:24.959Z,-1.54
2022-12-14T03:44:49.531Z,-1.65
2022-12-14T03:48:16.911Z,-1.57
2022-12-14T03:51:31.225Z,-1.80
2022-12-14T03:54:52.603Z,-1.76
2022-12-14T03:58:04.314Z,-1.75
2022-12-14T04:01:21.480Z,-1.72
2022-12-14T04:04:30.011Z,-1.71
2022-12-14T04:07:38.432Z,-1.64
2022-12-14T04:11:04.959Z,-1.61
2022-12-14T04:14:36.230Z,-1.64
2022-12-14T04:18:02.116Z,-1.59
2022-12-14T04:21:23.995Z,-1.62
2022-12-14T04:24:57.780Z,-1.70
2022-12-14T04:28:06.618Z,-1.69
2022-12-14T04:31:14.124Z,-1.63
2022-12-14T04:34:20.898Z,-1.67
2022-12-14T04:37:27.325Z,-1.60
2022-12-14T04:40:50.728Z,-1.58
2022-12-14T04:43:57.381Z,-1.60
2022-12-14T04:47:04.242Z,-1.64
2022-12-14T04:50:15.643Z,-1.58
2022-12-14T04:53:25.014Z,-1.62
2022-12-14T04:56:36.633Z,-1.68
2022-12-14T04:59:40.399Z,-1.67
2022-12-14T05:03:01.716Z,-1.72
2022-12-14T05:06:26.244Z,-1.77
2022-12-14T05:09:36.618Z,-1.76
2022-12-14T05:12:48.213Z,-1.84
2022-12-14T05:15:56.660Z,-1.97
2022-12-14T05:18:59.312Z,-1.90
2022-12-14T05:22:06.834Z,-1.82
2022-12-14T05:25:09.647Z,-1.94
2022-12-14T05:28:13.194Z,-2.00
2022-12-14T05:31:15.950Z,-1.92
2022-12-14T05:34:20.479Z,-1.90
2022-12-14T05:37:23.147Z,-1.89
2022-12-14T05:40:26.164Z,-1.89
2022-12-14T05:43:29.142Z,-1.83
2022-12-14T05:46:32.515Z,-1.76
2022-12-14T05:49:35.162Z,-1.79
2022-12-14T05:52:38.149Z,-1.82
2022-12-14T05:55:50.273Z,-1.88
2022-12-14T05:58:53.232Z,-1.80
2022-12-14T06:01:55.948Z,-1.73
2022-12-14T06:04:58.925Z,-1.75
2022-12-14T06:08:01.789Z,-1.73
2022-12-14T06:11:11.078Z,-1.85
2022-12-14T06:14:16.854Z,-1.85
2022-12-14T06:17:19.821Z,-1.78
2022-12-14T06:20:23.134Z,-1.77
2022-12-14T06:23:26.360Z,-1.77
2022-12-14T06:26:31.236Z,-1.71
2022-12-14T06:29:34.130Z,-1.68
2022-12-14T06:32:36.790Z,-1.62
2022-12-14T06:35:45.138Z,-1.75
2022-12-14T06:38:48.018Z,-1.65
2022-12-14T06:41:52.694Z,-1.74
2022-12-14T06:44:55.705Z,-1.76
2022-12-14T06:47:58.800Z,-1.74
2022-12-14T06:51:05.116Z,-1.77
2022-12-14T06:54:08.283Z,-1.80
2022-12-14T06:57:12.431Z,-1.74
2022-12-14T07:00:16.021Z,-1.78
2022-12-14T07:03:18.871Z,-1.79
2022-12-14T07:06:26.819Z,-1.74
2022-12-14T07:09:29.493Z,-1.78
2022-12-14T07:12:32.619Z,-1.76
2022-12-14T07:15:35.343Z,-1.73
2022-12-14T07:18:38.384Z,-1.69
2022-12-14T07:21:41.262Z,-1.66
2022-12-14T07:24:44.201Z,-1.62
2022-12-14T07:27:46.970Z,-1.65
2022-12-14T07:30:56.882Z,-1.67
2022-12-14T07:34:00.520Z,-1.61
2022-12-14T07:37:03.692Z,-1.65
2022-12-14T07:40:07.166Z,-1.69
2022-12-14T07:43:10.676Z,-1.58
2022-12-14T07:46:16.302Z,-1.56
2022-12-14T07:49:19.439Z,-1.48
2022-12-14T07:52:23.361Z,-1.56
2022-12-14T07:55:26.487Z,-1.55
2022-12-14T07:58:31.296Z,-1.54
2022-12-14T08:01:39.056Z,-1.43
2022-12-14T08:04:42.505Z,-1.30
2022-12-14T08:07:45.318Z,-1.44
2022-12-14T08:10:49.203Z,-1.45
2022-12-14T08:14:06.673Z,-1.49
2022-12-14T08:17:09.899Z,-1.47
2022-12-14T08:20:12.949Z,-1.43
2022-12-14T08:23:16.017Z,-1.47
2022-12-14T08:26:19.506Z,-1.43
2022-12-14T08:29:22.693Z,-1.49
2022-12-14T08:32:29.542Z,-1.43
2022-12-14T08:35:36.099Z,-1.34
2022-12-14T08:38:39.775Z,-1.31
2022-12-14T08:41:44.388Z,-1.34
2022-12-14T08:44:47.151Z,-1.31
2022-12-14T08:47:53.701Z,-1.21
2022-12-14T08:51:02.937Z,-1.29
2022-12-14T08:54:06.100Z,-1.14
2022-12-14T08:57:09.018Z,-1.18
2022-12-14T09:00:13.386Z,-1.25
2022-12-14T09:03:17.011Z,-1.24
2022-12-14T09:06:23.788Z,-1.17
2022-12-14T09:09:26.440Z,-1.17
2022-12-14T09:12:29.610Z,-1.10
2022-12-14T09:15:32.246Z,-1.11
2022-12-14T09:18:35.450Z,-1.07
2022-12-14T09:21:38.781Z,-1.03
2022-12-14T09:24:42.236Z,-1.00
2022-12-14T09:27:46.031Z,-1.06
2022-12-14T09:30:54.917Z,-0.92
2022-12-14T09:33:57.749Z,-0.90
2022-12-14T09:37:04.785Z,-0.91
2022-12-14T09:40:07.999Z,-0.86
2022-12-14T09:43:20.113Z,-0.85
2022-12-14T09:46:42.062Z,-0.86
2022-12-14T09:49:54.462Z,-0.81
2022-12-14T09:53:02.498Z,-0.74
2022-12-14T09:56:06.936Z,-0.72
2022-12-14T09:59:17.571Z,-0.85
2022-12-14T10:02:47.781Z,-0.68
2022-12-14T10:05:57.681Z,-0.76
2022-12-14T10:09:09.435Z,-0.55
2022-12-14T10:12:18.392Z,-0.58
2022-12-14T10:15:50.322Z,-0.43
2022-12-14T10:19:26.262Z,-0.28
2022-12-14T10:22:42.590Z,-0.24
2022-12-14T10:25:49.357Z,-0.27
2022-12-14T10:29:01.918Z,-0.32
2022-12-14T10:32:39.175Z,-0.24
2022-12-14T10:35:52.653Z,-0.31
2022-12-14T10:39:23.005Z,-0.11
2022-12-14T10:42:58.152Z,-0.11
2022-12-14T10:46:10.069Z,0.02
2022-12-14T10:49:46.593Z,-0.08
2022-12-14T10:52:53.805Z,0.11
2022-12-14T10:56:04.114Z,0.17
2022-12-14T10:59:21.973Z,0.15
2022-12-14T11:02:28.223Z,0.33
2022-12-14T11:05:36.899Z,0.21
2022-12-14T11:08:41.689Z,0.36
2022-12-14T11:11:45.915Z,0.33
2022-12-14T11:15:26.527Z,0.38
2022-12-14T11:18:31.721Z,0.43
2022-12-14T11:21:38.225Z,0.33
2022-12-14T11:24:47.553Z,0.30
2022-12-14T11:27:50.407Z,0.39
2022-12-14T11:31:06.783Z,0.34
2022-12-14T11:34:33.505Z,0.27
2022-12-14T11:37:38.661Z,0.19
2022-12-14T11:40:41.390Z,0.29
2022-12-14T11:43:46.954Z,0.28
2022-12-14T11:46:54.857Z,0.28
2022-12-14T11:50:00.529Z,0.33
2022-12-14T11:53:11.647Z,0.30
2022-12-14T11:56:18.363Z,0.29
2022-12-14T11:59:22.894Z,0.27
2022-12-14T12:02:31.039Z,0.30
2022-12-14T12:05:39.786Z,0.31
2022-12-14T12:08:44.889Z,0.29
2022-12-14T12:11:48.009Z,0.30
2022-12-14T12:14:56.096Z,0.28
2022-12-14T12:18:20.396Z,0.25
2022-12-14T12:21:28.203Z,0.30
2022-12-14T12:25:16.792Z,0.30
2022-12-14T12:28:26.262Z,0.19
2022-12-14T12:31:41.259Z,0.23
2022-12-14T12:34:46.697Z,0.28
2022-12-14T12:38:15.118Z,0.26
2022-12-14T12:41:20.493Z,0.30
2022-12-14T12:44:32.429Z,0.32
2022-12-14T12:47:47.131Z,0.37
2022-12-14T12:51:00.087Z,0.43
2022-12-14T12:54:12.338Z,0.36
2022-12-14T12:57:17.326Z,0.41
2022-12-14T13:00:22.429Z,0.44
2022-12-14T13:03:37.693Z,0.45
2022-12-14T13:06:54.538Z,0.39
2022-12-14T13:10:12.771Z,0.44
2022-12-14T13:13:28.613Z,0.49
2022-12-14T13:16:37.112Z,0.47
2022-12-14T13:19:50.330Z,0.43
2022-12-14T13:22:57.330Z,0.37
2022-12-14T13:26:13.405Z,0.40
2022-12-14T13:29:31.229Z,0.40
2022-12-14T13:32:50.080Z,0.34
2022-12-14T13:35:52.986Z,0.33
2022-12-14T13:39:10.663Z,0.33
2022-12-14T13:42:55.459Z,0.37
2022-12-14T13:46:07.473Z,0.35
2022-12-14T13:49:21.790Z,0.39
2022-12-14T13:52:43.953Z,0.39
2022-12-14T13:55:58.080Z,0.43
2022-12-14T13:59:05.853Z,0.38
2022-12-14T14:02:28.898Z,0.37
2022-12-14T14:05:34.918Z,0.38
2022-12-14T14:08:42.152Z,0.36
2022-12-14T14:11:54.902Z,0.33
2022-12-14T14:15:09.690Z,0.33
2022-12-14T14:18:17.298Z,0.31
2022-12-14T14:22:24.998Z,0.32
2022-12-14T14:25:34.849Z,0.26
2022-12-14T14:28:38.809Z,0.30
2022-12-14T14:31:48.157Z,0.26
2022-12-14T14:34:52.793Z,0.27
2022-12-14T14:38:02.077Z,0.21
2022-12-14T14:41:17.723Z,0.20
2022-12-14T14:44:40.741Z,0.17
2022-12-14T14:47:43.458Z,0.16
2022-12-14T14:50:48.968Z,0.15
2022-12-14T14:54:36.983Z,0.13
2022-12-14T14:58:04.866Z,0.13
2022-12-14T15:01:13.565Z,0.10
2022-12-14T15:04:23.768Z,0.09
2022-12-14T15:07:31.114Z,0.09
2022-12-14T15:10:42.239Z,0.06
2022-12-14T15:14:13.783Z,0.05
2022-12-14T15:17:20.977Z,0.04
2022-12-14T15:20:27.427Z,0.07
2022-12-14T15:23:44.085Z,0.08
2022-12-14T15:26:52.690Z,0.10
2022-12-14T15:30:12.672Z,0.12
2022-12-14T15:33:28.729Z,0.12
2022-12-14T15:36:37.570Z,0.14
2022-12-14T15:39:43.845Z,0.13
2022-12-14T15:42:51.867Z,0.14
2022-12-14T15:46:04.611Z,0.12
2022-12-14T15:49:21.847Z,0.16
2022-12-14T15:52:30.417Z,0.14
2022-12-14T15:55:40.442Z,0.06
2022-12-14T15:58:44.356Z,0.02
2022-12-14T16:02:07.181Z,0.05
2022-12-14T16:05:17.180Z,-0.03
2022-12-14T16:08:20.374Z,0.05
2022-12-14T16:11:28.728Z,-0.02
2022-12-14T16:14:56.945Z,0.00
2022-12-14T16:18:03.246Z,-0.02
2022-12-14T16:21:06.437Z,-0.08
2022-12-14T16:24:24.787Z,0.02
2022-12-14T16:27:28.984Z,0.00
2022-12-14T16:30:35.270Z,-0.01
2022-12-14T16:33:41.262Z,-0.03
2022-12-14T16:37:08.027Z,-0.03
2022-12-14T16:40:28.830Z,0.06
2022-12-14T16:43:35.886Z,-0.03
2022-12-14T16:46:38.701Z,0.00
2022-12-14T16:49:55.411Z,-0.03
2022-12-14T16:53:23.664Z,-0.05
2022-12-14T16:56:45.031Z,-0.05
2022-12-14T16:59:57.250Z,-0.02
2022-12-14T17:03:08.177Z,-0.02
2022-12-14T17:06:23.276Z,0.06
2022-12-14T17:09:31.042Z,0.12
2022-12-14T17:12:34.533Z,0.11
2022-12-14T17:16:01.633Z,0.15
2022-12-14T17:19:05.575Z,0.19
2022-12-14T17:22:25.304Z,0.31
2022-12-14T17:25:30.936Z,0.27
2022-12-14T17:28:35.409Z,0.23
2022-12-14T17:31:41.854Z,0.39
2022-12-14T17:34:47.626Z,0.37
2022-12-14T17:37:52.546Z,0.36
2022-12-14T17:40:57.154Z,0.34
2022-12-14T17:44:00.511Z,0.33
2022-12-14T17:47:04.393Z,0.43
2022-12-14T17:50:08.368Z,0.38
2022-12-14T17:53:15.316Z,0.27
2022-12-14T17:56:18.404Z,0.32
2022-12-14T17:59:22.056Z,0.30
2022-12-14T18:02:37.872Z,0.31
2022-12-14T18:05:48.285Z,0.27
2022-12-14T18:08:56.776Z,0.11
2022-12-14T18:15:37.617Z,0.32
2022-12-14T18:18:49.874Z,0.24
2022-12-14T18:21:59.394Z,0.33
2022-12-14T18:25:05.075Z,0.33
2022-12-14T18:28:11.111Z,0.20
2022-12-14T18:31:34.467Z,0.27
2022-12-14T18:34:38.729Z,0.29
2022-12-14T18:37:42.745Z,0.29
2022-12-14T18:40:55.301Z,0.26
2022-12-14T18:44:01.107Z,0.31
2022-12-14T18:47:33.161Z,0.26
2022-12-14T18:50:31.120Z,0.18
2022-12-14T18:53:37.998Z,0.14
2022-12-14T18:56:43.584Z,0.23
2022-12-14T18:59:50.950Z,0.25
2022-12-14T19:03:04.126Z,0.23
2022-12-14T19:06:42.995Z,0.18
2022-12-14T19:09:42.455Z,0.20
2022-12-14T19:12:49.714Z,0.32
2022-12-14T19:15:56.505Z,0.33
2022-12-14T19:19:02.069Z,0.33
2022-12-14T19:22:06.621Z,0.28
2022-12-14T19:25:11.755Z,0.25
2022-12-14T19:28:33.345Z,0.30
2022-12-14T19:31:37.813Z,0.33
2022-12-14T19:34:43.718Z,0.35
2022-12-14T19:37:49.612Z,0.40
2022-12-14T19:41:05.062Z,0.43
2022-12-14T19:44:09.389Z,0.33
2022-12-14T19:47:15.901Z,0.32
2022-12-14T19:50:20.417Z,0.36
2022-12-14T19:53:25.545Z,0.44
2022-12-14T19:56:29.992Z,0.39
2022-12-14T19:59:35.072Z,0.40
2022-12-14T20:02:39.297Z,0.38
2022-12-14T20:05:53.894Z,0.39
2022-12-14T20:09:15.706Z,0.46
2022-12-14T20:12:23.333Z,0.46
2022-12-14T20:15:30.205Z,0.59
2022-12-14T20:18:35.315Z,0.52
2022-12-14T20:21:40.364Z,0.71
2022-12-14T20:24:49.344Z,0.72
2022-12-14T20:27:53.783Z,0.79
2022-12-14T20:30:58.944Z,0.72
2022-12-14T20:34:05.088Z,0.55
2022-12-14T20:37:12.337Z,0.42
2022-12-14T20:40:17.803Z,0.51
2022-12-14T20:43:28.338Z,0.49
2022-12-14T20:46:37.892Z,0.62
2022-12-14T20:49:45.437Z,0.54
2022-12-14T20:52:49.213Z,0.50
2022-12-14T20:55:57.043Z,0.45
2022-12-14T20:59:02.063Z,0.34
2022-12-14T21:02:17.296Z,0.21
2022-12-14T21:05:21.176Z,0.14
2022-12-14T21:08:30.462Z,0.08
2022-12-14T21:11:57.346Z,-0.11
2022-12-14T21:15:01.231Z,-0.11
2022-12-14T21:18:04.617Z,-0.17
2022-12-14T21:21:08.383Z,-0.22
2022-12-14T21:24:31.106Z,-0.24
2022-12-14T21:27:39.175Z,-0.27
2022-12-14T21:30:41.957Z,-0.28
2022-12-14T21:33:49.690Z,-0.32
2022-12-14T21:36:52.809Z,-0.32
2022-12-14T21:39:56.355Z,-0.28
2022-12-14T21:42:59.321Z,-0.33
2022-12-14T21:46:02.403Z,-0.31
2022-12-14T21:49:06.830Z,-0.22
2022-12-14T21:52:13.842Z,-0.18
2022-12-14T21:55:16.566Z,-0.07
2022-12-14T21:58:19.603Z,-0.12
2022-12-14T22:01:22.408Z,-0.02
2022-12-14T22:04:27.005Z,0.01
2022-12-14T22:07:32.595Z,0.08
2022-12-14T22:10:35.590Z,0.08
2022-12-14T22:13:38.359Z,0.23
2022-12-14T22:16:42.130Z,0.17
2022-12-14T22:19:44.868Z,0.26
2022-12-14T22:22:47.919Z,0.23
2022-12-14T22:25:50.698Z,0.18
2022-12-14T22:28:53.945Z,0.25
2022-12-14T22:31:56.625Z,0.24
2022-12-14T22:34:59.793Z,0.16
2022-12-14T22:38:02.504Z,0.13
2022-12-14T22:41:06.863Z,0.14
2022-12-14T22:44:11.468Z,0.11
2022-12-14T22:47:14.445Z,0.11
2022-12-14T22:50:17.120Z,0.09
2022-12-14T22:53:20.153Z,0.10
2022-12-14T22:56:38.485Z,0.08
2022-12-14T23:00:00.415Z,0.12
2022-12-14T23:03:03.786Z,0.13
2022-12-14T23:06:15.549Z,0.08
2022-12-14T23:09:36.660Z,0.08
2022-12-14T23:12:59.302Z,0.05
2022-12-14T23:16:20.482Z,0.06
2022-12-14T23:19:42.385Z,0.05
2022-12-14T23:23:03.584Z,0.08
2022-12-14T23:26:25.469Z,0.06
2022-12-14T23:29:46.757Z,0.05
2022-12-14T23:33:08.491Z,0.06
2022-12-14T23:36:29.670Z,0.08
2022-12-14T23:39:51.368Z,0.05
2022-12-14T23:43:12.404Z,0.04
2022-12-14T23:46:36.449Z,0.06
2022-12-14T23:49:57.985Z,0.00
2022-12-14T23:53:26.353Z,0.05
2022-12-14T23:56:47.786Z,-0.02
